sensor_id;sensor_type;location;lat;lon;timestamp;P1;durP1;ratioP1;P2;durP2;ratioP2
2912;SDS011;1466;48.778;9.166;2022-09-30T00:01:41;17.15;;;6.63;;
2912;SDS011;1466;48.778;9.166;2022-09-30T00:04:14;9.32;;;5.95;;
2912;SDS011;1466;48.778;9.166;2022-09-30T00:06:42;17.30;;;6.97;;
2912;SDS011;1466;48.778;9.166;2022-09-30T00:09:09;14.32;;;6.75;;
2912;SDS011;1466;48.778;9.166;2022-09-30T00:11:36;23.30;;;8.07;;
2912;SDS011;1466;48.778;9.166;2022-09-30T00:14:03;21.85;;;7.38;;
2912;SDS011;1466;48.778;9.166;2022-09-30T00:16:31;20.88;;;7.53;;
2912;SDS011;1466;48.778;9.166;2022-09-30T00:18:58;24.05;;;10.73;;
2912;SDS011;1466;48.778;9.166;2022-09-30T00:21:24;21.90;;;8.20;;
2912;SDS011;1466;48.778;9.166;2022-09-30T00:23:52;17.75;;;7.93;;
2912;SDS011;1466;48.778;9.166;2022-09-30T00:26:20;22.58;;;8.48;;
2912;SDS011;1466;48.778;9.166;2022-09-30T00:28:50;16.00;;;6.22;;
2912;SDS011;1466;48.778;9.166;2022-09-30T00:31:18;21.25;;;7.93;;
2912;SDS011;1466;48.778;9.166;2022-09-30T00:33:46;16.52;;;7.95;;
2912;SDS011;1466;48.778;9.166;2022-09-30T00:36:30;20.20;;;8.10;;
2912;SDS011;1466;48.778;9.166;2022-09-30T00:39:13;19.98;;;7.78;;
2912;SDS011;1466;48.778;9.166;2022-09-30T00:41:45;15.30;;;6.78;;
2912;SDS011;1466;48.778;9.166;2022-09-30T00:47:16;15.70;;;7.40;;
2912;SDS011;1466;48.778;9.166;2022-09-30T00:49:51;10.95;;;6.57;;
2912;SDS011;1466;48.778;9.166;2022-09-30T00:52:17;18.23;;;8.02;;
2912;SDS011;1466;48.778;9.166;2022-09-30T00:54:43;17.70;;;7.85;;
2912;SDS011;1466;48.778;9.166;2022-09-30T00:57:09;30.80;;;7.73;;
2912;SDS011;1466;48.778;9.166;2022-09-30T00:59:36;21.33;;;6.97;;
2912;SDS011;1466;48.778;9.166;2022-09-30T01:02:08;13.23;;;6.50;;
2912;SDS011;1466;48.778;9.166;2022-09-30T01:04:34;19.65;;;7.90;;
2912;SDS011;1466;48.778;9.166;2022-09-30T01:07:02;19.55;;;7.35;;
2912;SDS011;1466;48.778;9.166;2022-09-30T01:09:30;15.00;;;6.20;;
2912;SDS011;1466;48.778;9.166;2022-09-30T01:11:59;13.82;;;6.80;;
2912;SDS011;1466;48.778;9.166;2022-09-30T01:14:29;18.38;;;8.45;;
2912;SDS011;1466;48.778;9.166;2022-09-30T01:33:32;22.55;;;8.57;;
2912;SDS011;1466;48.778;9.166;2022-09-30T01:36:19;21.55;;;8.43;;
2912;SDS011;1466;48.778;9.166;2022-09-30T01:38:59;14.93;;;7.18;;
2912;SDS011;1466;48.778;9.166;2022-09-30T01:44:42;13.60;;;6.55;;
2912;SDS011;1466;48.778;9.166;2022-09-30T01:47:25;12.52;;;6.63;;
2912;SDS011;1466;48.778;9.166;2022-09-30T01:57:53;16.35;;;7.55;;
2912;SDS011;1466;48.778;9.166;2022-09-30T02:00:34;22.83;;;7.90;;
2912;SDS011;1466;48.778;9.166;2022-09-30T02:05:40;21.23;;;8.25;;
2912;SDS011;1466;48.778;9.166;2022-09-30T02:10:55;19.20;;;7.35;;
2912;SDS011;1466;48.778;9.166;2022-09-30T02:13:26;18.65;;;7.90;;
2912;SDS011;1466;48.778;9.166;2022-09-30T02:16:00;20.95;;;7.55;;
2912;SDS011;1466;48.778;9.166;2022-09-30T02:18:40;18.95;;;7.93;;
2912;SDS011;1466;48.778;9.166;2022-09-30T02:21:23;12.52;;;6.93;;
2912;SDS011;1466;48.778;9.166;2022-09-30T02:23:56;20.13;;;8.38;;
2912;SDS011;1466;48.778;9.166;2022-09-30T02:26:27;17.85;;;8.07;;
2912;SDS011;1466;48.778;9.166;2022-09-30T02:29:00;11.60;;;6.60;;
2912;SDS011;1466;48.778;9.166;2022-09-30T02:31:42;21.95;;;8.32;;
2912;SDS011;1466;48.778;9.166;2022-09-30T02:34:16;18.30;;;7.75;;
2912;SDS011;1466;48.778;9.166;2022-09-30T02:39:40;14.90;;;8.05;;
2912;SDS011;1466;48.778;9.166;2022-09-30T02:42:21;17.48;;;7.57;;
2912;SDS011;1466;48.778;9.166;2022-09-30T02:44:53;30.02;;;8.88;;
2912;SDS011;1466;48.778;9.166;2022-09-30T02:50:03;18.70;;;8.43;;
2912;SDS011;1466;48.778;9.166;2022-09-30T02:52:41;25.35;;;9.70;;
2912;SDS011;1466;48.778;9.166;2022-09-30T02:56:08;21.58;;;7.75;;
2912;SDS011;1466;48.778;9.166;2022-09-30T02:58:19;25.63;;;9.95;;
2912;SDS011;1466;48.778;9.166;2022-09-30T03:00:46;30.42;;;9.10;;
2912;SDS011;1466;48.778;9.166;2022-09-30T03:03:20;15.80;;;8.52;;
2912;SDS011;1466;48.778;9.166;2022-09-30T03:06:13;19.25;;;9.30;;
2912;SDS011;1466;48.778;9.166;2022-09-30T03:08:39;23.63;;;10.03;;
2912;SDS011;1466;48.778;9.166;2022-09-30T03:11:06;17.00;;;9.18;;
2912;SDS011;1466;48.778;9.166;2022-09-30T03:21:54;22.63;;;9.90;;
2912;SDS011;1466;48.778;9.166;2022-09-30T03:37:55;27.40;;;10.00;;
2912;SDS011;1466;48.778;9.166;2022-09-30T03:43:45;29.40;;;9.48;;
2912;SDS011;1466;48.778;9.166;2022-09-30T03:46:31;28.73;;;10.98;;
2912;SDS011;1466;48.778;9.166;2022-09-30T03:49:02;20.95;;;9.70;;
2912;SDS011;1466;48.778;9.166;2022-09-30T03:51:36;30.65;;;11.52;;
2912;SDS011;1466;48.778;9.166;2022-09-30T03:54:07;30.55;;;10.40;;
2912;SDS011;1466;48.778;9.166;2022-09-30T03:56:35;27.40;;;10.55;;
2912;SDS011;1466;48.778;9.166;2022-09-30T03:59:23;33.63;;;12.45;;
2912;SDS011;1466;48.778;9.166;2022-09-30T04:01:50;18.40;;;9.23;;
2912;SDS011;1466;48.778;9.166;2022-09-30T04:04:16;25.67;;;10.60;;
2912;SDS011;1466;48.778;9.166;2022-09-30T04:06:42;29.37;;;10.90;;
2912;SDS011;1466;48.778;9.166;2022-09-30T04:09:08;15.97;;;7.67;;
2912;SDS011;1466;48.778;9.166;2022-09-30T04:11:33;27.90;;;10.53;;
2912;SDS011;1466;48.778;9.166;2022-09-30T04:13:59;22.87;;;9.33;;
2912;SDS011;1466;48.778;9.166;2022-09-30T04:16:27;29.40;;;10.45;;
2912;SDS011;1466;48.778;9.166;2022-09-30T04:18:53;24.20;;;9.38;;
2912;SDS011;1466;48.778;9.166;2022-09-30T04:21:20;25.70;;;10.27;;
2912;SDS011;1466;48.778;9.166;2022-09-30T04:23:46;24.20;;;9.75;;
2912;SDS011;1466;48.778;9.166;2022-09-30T04:26:13;20.95;;;9.48;;
2912;SDS011;1466;48.778;9.166;2022-09-30T04:28:41;26.00;;;10.07;;
2912;SDS011;1466;48.778;9.166;2022-09-30T04:31:07;34.58;;;11.05;;
2912;SDS011;1466;48.778;9.166;2022-09-30T04:33:34;47.33;;;12.43;;
2912;SDS011;1466;48.778;9.166;2022-09-30T04:36:00;23.30;;;10.40;;
2912;SDS011;1466;48.778;9.166;2022-09-30T04:38:25;21.23;;;9.60;;
2912;SDS011;1466;48.778;9.166;2022-09-30T04:40:52;27.93;;;10.27;;
2912;SDS011;1466;48.778;9.166;2022-09-30T04:43:18;21.35;;;9.73;;
2912;SDS011;1466;48.778;9.166;2022-09-30T04:45:46;20.30;;;9.35;;
2912;SDS011;1466;48.778;9.166;2022-09-30T04:48:13;28.80;;;10.82;;
2912;SDS011;1466;48.778;9.166;2022-09-30T04:50:39;19.40;;;9.52;;
2912;SDS011;1466;48.778;9.166;2022-09-30T04:53:06;20.25;;;8.70;;
2912;SDS011;1466;48.778;9.166;2022-09-30T04:55:32;19.23;;;9.60;;
2912;SDS011;1466;48.778;9.166;2022-09-30T04:57:57;25.60;;;9.67;;
2912;SDS011;1466;48.778;9.166;2022-09-30T05:00:23;16.50;;;9.33;;
2912;SDS011;1466;48.778;9.166;2022-09-30T05:02:49;27.42;;;11.52;;
2912;SDS011;1466;48.778;9.166;2022-09-30T05:05:16;27.45;;;11.43;;
2912;SDS011;1466;48.778;9.166;2022-09-30T05:07:41;28.60;;;11.40;;
2912;SDS011;1466;48.778;9.166;2022-09-30T05:10:08;20.70;;;10.02;;
2912;SDS011;1466;48.778;9.166;2022-09-30T05:12:35;36.30;;;12.55;;
2912;SDS011;1466;48.778;9.166;2022-09-30T05:15:02;29.42;;;10.73;;
2912;SDS011;1466;48.778;9.166;2022-09-30T05:17:29;26.23;;;10.40;;
2912;SDS011;1466;48.778;9.166;2022-09-30T05:19:55;17.38;;;8.05;;
2912;SDS011;1466;48.778;9.166;2022-09-30T05:22:21;25.47;;;9.47;;
2912;SDS011;1466;48.778;9.166;2022-09-30T05:24:48;28.75;;;11.07;;
2912;SDS011;1466;48.778;9.166;2022-09-30T05:27:15;23.85;;;9.35;;
2912;SDS011;1466;48.778;9.166;2022-09-30T05:29:42;41.80;;;12.13;;
2912;SDS011;1466;48.778;9.166;2022-09-30T05:32:07;25.70;;;10.87;;
2912;SDS011;1466;48.778;9.166;2022-09-30T05:34:33;23.97;;;10.90;;
2912;SDS011;1466;48.778;9.166;2022-09-30T05:36:59;21.40;;;10.73;;
2912;SDS011;1466;48.778;9.166;2022-09-30T05:39:24;28.77;;;10.60;;
2912;SDS011;1466;48.778;9.166;2022-09-30T05:41:50;31.40;;;10.17;;
2912;SDS011;1466;48.778;9.166;2022-09-30T05:44:15;15.10;;;8.30;;
2912;SDS011;1466;48.778;9.166;2022-09-30T05:46:42;17.80;;;9.40;;
2912;SDS011;1466;48.778;9.166;2022-09-30T05:49:08;26.67;;;11.20;;
2912;SDS011;1466;48.778;9.166;2022-09-30T05:51:33;18.63;;;9.90;;
2912;SDS011;1466;48.778;9.166;2022-09-30T05:54:00;27.23;;;10.90;;
2912;SDS011;1466;48.778;9.166;2022-09-30T05:56:25;38.17;;;11.60;;
2912;SDS011;1466;48.778;9.166;2022-09-30T05:58:51;19.87;;;9.93;;
2912;SDS011;1466;48.778;9.166;2022-09-30T06:01:17;18.30;;;9.73;;
2912;SDS011;1466;48.778;9.166;2022-09-30T06:03:43;23.27;;;9.37;;
2912;SDS011;1466;48.778;9.166;2022-09-30T06:06:10;24.50;;;10.18;;
2912;SDS011;1466;48.778;9.166;2022-09-30T06:08:36;21.30;;;10.63;;
2912;SDS011;1466;48.778;9.166;2022-09-30T06:11:06;21.33;;;9.33;;
2912;SDS011;1466;48.778;9.166;2022-09-30T06:13:36;26.75;;;10.55;;
2912;SDS011;1466;48.778;9.166;2022-09-30T06:16:02;24.45;;;11.02;;
2912;SDS011;1466;48.778;9.166;2022-09-30T06:18:28;15.53;;;9.03;;
2912;SDS011;1466;48.778;9.166;2022-09-30T06:20:55;22.98;;;11.27;;
2912;SDS011;1466;48.778;9.166;2022-09-30T06:23:22;26.33;;;10.65;;
2912;SDS011;1466;48.778;9.166;2022-09-30T06:25:49;25.40;;;10.13;;
2912;SDS011;1466;48.778;9.166;2022-09-30T06:28:15;37.03;;;12.90;;
2912;SDS011;1466;48.778;9.166;2022-09-30T06:30:42;34.03;;;13.10;;
2912;SDS011;1466;48.778;9.166;2022-09-30T06:33:08;27.98;;;11.57;;
2912;SDS011;1466;48.778;9.166;2022-09-30T06:35:34;23.57;;;11.20;;
2912;SDS011;1466;48.778;9.166;2022-09-30T06:38:00;35.13;;;12.60;;
2912;SDS011;1466;48.778;9.166;2022-09-30T06:40:26;24.83;;;11.90;;
2912;SDS011;1466;48.778;9.166;2022-09-30T06:42:56;25.20;;;12.10;;
2912;SDS011;1466;48.778;9.166;2022-09-30T06:45:25;24.77;;;12.50;;
2912;SDS011;1466;48.778;9.166;2022-09-30T06:47:55;26.45;;;11.40;;
2912;SDS011;1466;48.778;9.166;2022-09-30T06:50:21;26.63;;;12.75;;
2912;SDS011;1466;48.778;9.166;2022-09-30T06:52:47;19.47;;;11.60;;
2912;SDS011;1466;48.778;9.166;2022-09-30T06:55:12;26.40;;;13.00;;
2912;SDS011;1466;48.778;9.166;2022-09-30T06:57:39;22.73;;;11.43;;
2912;SDS011;1466;48.778;9.166;2022-09-30T07:00:05;30.25;;;12.90;;
2912;SDS011;1466;48.778;9.166;2022-09-30T07:02:31;24.30;;;11.23;;
2912;SDS011;1466;48.778;9.166;2022-09-30T07:04:58;26.40;;;12.30;;
2912;SDS011;1466;48.778;9.166;2022-09-30T07:07:25;23.98;;;13.13;;
2912;SDS011;1466;48.778;9.166;2022-09-30T07:09:51;32.53;;;12.67;;
2912;SDS011;1466;48.778;9.166;2022-09-30T07:12:16;26.13;;;12.60;;
2912;SDS011;1466;48.778;9.166;2022-09-30T07:14:42;30.17;;;13.23;;
2912;SDS011;1466;48.778;9.166;2022-09-30T07:17:08;19.90;;;12.43;;
2912;SDS011;1466;48.778;9.166;2022-09-30T07:19:33;32.43;;;12.10;;
2912;SDS011;1466;48.778;9.166;2022-09-30T07:21:59;43.83;;;15.60;;
2912;SDS011;1466;48.778;9.166;2022-09-30T07:24:45;29.52;;;12.88;;
2912;SDS011;1466;48.778;9.166;2022-09-30T07:27:10;28.20;;;12.67;;
2912;SDS011;1466;48.778;9.166;2022-09-30T07:29:38;28.77;;;13.07;;
2912;SDS011;1466;48.778;9.166;2022-09-30T07:32:07;29.60;;;14.02;;
2912;SDS011;1466;48.778;9.166;2022-09-30T07:34:33;26.73;;;12.10;;
2912;SDS011;1466;48.778;9.166;2022-09-30T07:36:59;29.63;;;13.70;;
2912;SDS011;1466;48.778;9.166;2022-09-30T07:39:26;25.92;;;12.20;;
2912;SDS011;1466;48.778;9.166;2022-09-30T07:41:52;23.93;;;11.77;;
2912;SDS011;1466;48.778;9.166;2022-09-30T07:44:17;28.53;;;13.77;;
2912;SDS011;1466;48.778;9.166;2022-09-30T07:46:44;24.23;;;13.38;;
2912;SDS011;1466;48.778;9.166;2022-09-30T07:49:11;40.07;;;14.53;;
2912;SDS011;1466;48.778;9.166;2022-09-30T07:51:39;25.55;;;13.55;;
2912;SDS011;1466;48.778;9.166;2022-09-30T07:54:13;36.45;;;16.13;;
2912;SDS011;1466;48.778;9.166;2022-09-30T07:56:41;23.27;;;13.10;;
2912;SDS011;1466;48.778;9.166;2022-09-30T07:59:09;32.95;;;15.10;;
2912;SDS011;1466;48.778;9.166;2022-09-30T08:01:35;31.17;;;14.15;;
2912;SDS011;1466;48.778;9.166;2022-09-30T08:04:02;25.37;;;13.67;;
2912;SDS011;1466;48.778;9.166;2022-09-30T08:06:30;25.00;;;14.05;;
2912;SDS011;1466;48.778;9.166;2022-09-30T08:08:57;27.02;;;14.93;;
2912;SDS011;1466;48.778;9.166;2022-09-30T08:11:23;29.40;;;15.00;;
2912;SDS011;1466;48.778;9.166;2022-09-30T08:13:50;25.58;;;15.32;;
2912;SDS011;1466;48.778;9.166;2022-09-30T08:16:17;32.38;;;16.33;;
2912;SDS011;1466;48.778;9.166;2022-09-30T08:18:43;30.35;;;15.38;;
2912;SDS011;1466;48.778;9.166;2022-09-30T08:21:08;24.93;;;15.03;;
2912;SDS011;1466;48.778;9.166;2022-09-30T08:23:34;37.10;;;13.20;;
2912;SDS011;1466;48.778;9.166;2022-09-30T08:26:09;21.07;;;12.37;;
2912;SDS011;1466;48.778;9.166;2022-09-30T08:28:37;21.80;;;12.85;;
2912;SDS011;1466;48.778;9.166;2022-09-30T08:33:31;28.05;;;14.30;;
2912;SDS011;1466;48.778;9.166;2022-09-30T08:36:01;26.13;;;13.87;;
2912;SDS011;1466;48.778;9.166;2022-09-30T08:38:32;24.45;;;13.50;;
2912;SDS011;1466;48.778;9.166;2022-09-30T08:41:04;25.70;;;13.95;;
2912;SDS011;1466;48.778;9.166;2022-09-30T08:43:49;26.58;;;13.95;;
2912;SDS011;1466;48.778;9.166;2022-09-30T08:52:14;28.05;;;15.13;;
2912;SDS011;1466;48.778;9.166;2022-09-30T08:54:47;34.83;;;15.32;;
2912;SDS011;1466;48.778;9.166;2022-09-30T08:57:17;29.48;;;13.98;;
2912;SDS011;1466;48.778;9.166;2022-09-30T08:59:45;29.85;;;14.45;;
2912;SDS011;1466;48.778;9.166;2022-09-30T09:02:22;33.17;;;14.30;;
2912;SDS011;1466;48.778;9.166;2022-09-30T09:04:56;27.85;;;14.85;;
2912;SDS011;1466;48.778;9.166;2022-09-30T09:07:42;24.77;;;14.80;;
2912;SDS011;1466;48.778;9.166;2022-09-30T09:10:26;26.38;;;14.55;;
2912;SDS011;1466;48.778;9.166;2022-09-30T09:12:58;29.38;;;14.77;;
2912;SDS011;1466;48.778;9.166;2022-09-30T09:23:38;27.20;;;13.98;;
2912;SDS011;1466;48.778;9.166;2022-09-30T09:26:05;29.65;;;15.75;;
2912;SDS011;1466;48.778;9.166;2022-09-30T09:28:35;29.70;;;14.60;;
2912;SDS011;1466;48.778;9.166;2022-09-30T09:31:15;25.77;;;14.60;;
2912;SDS011;1466;48.778;9.166;2022-09-30T09:33:42;31.70;;;14.82;;
2912;SDS011;1466;48.778;9.166;2022-09-30T09:42:02;21.23;;;12.40;;
2912;SDS011;1466;48.778;9.166;2022-09-30T09:44:49;19.50;;;12.65;;
2912;SDS011;1466;48.778;9.166;2022-09-30T09:47:22;25.45;;;13.43;;
2912;SDS011;1466;48.778;9.166;2022-09-30T09:55:37;13.82;;;7.45;;
2912;SDS011;1466;48.778;9.166;2022-09-30T09:58:04;23.93;;;10.30;;
2912;SDS011;1466;48.778;9.166;2022-09-30T10:00:31;16.73;;;9.55;;
2912;SDS011;1466;48.778;9.166;2022-09-30T10:05:57;20.27;;;11.13;;
2912;SDS011;1466;48.778;9.166;2022-09-30T10:08:26;19.42;;;10.23;;
2912;SDS011;1466;48.778;9.166;2022-09-30T10:10:56;23.23;;;10.32;;
2912;SDS011;1466;48.778;9.166;2022-09-30T10:13:24;19.02;;;10.10;;
2912;SDS011;1466;48.778;9.166;2022-09-30T10:15:59;19.35;;;10.98;;
2912;SDS011;1466;48.778;9.166;2022-09-30T10:21:39;17.33;;;10.10;;
2912;SDS011;1466;48.778;9.166;2022-09-30T10:23:47;19.88;;;11.27;;
2912;SDS011;1466;48.778;9.166;2022-09-30T10:28:49;17.80;;;11.27;;
2912;SDS011;1466;48.778;9.166;2022-09-30T10:31:16;20.27;;;10.85;;
2912;SDS011;1466;48.778;9.166;2022-09-30T10:33:43;33.28;;;14.15;;
2912;SDS011;1466;48.778;9.166;2022-09-30T10:38:44;15.52;;;10.00;;
2912;SDS011;1466;48.778;9.166;2022-09-30T10:41:11;19.92;;;10.73;;
2912;SDS011;1466;48.778;9.166;2022-09-30T10:43:43;19.80;;;9.97;;
2912;SDS011;1466;48.778;9.166;2022-09-30T10:46:20;21.17;;;10.70;;
2912;SDS011;1466;48.778;9.166;2022-09-30T10:48:48;22.27;;;10.65;;
2912;SDS011;1466;48.778;9.166;2022-09-30T10:51:22;17.40;;;9.48;;
2912;SDS011;1466;48.778;9.166;2022-09-30T10:53:51;33.70;;;12.02;;
2912;SDS011;1466;48.778;9.166;2022-09-30T10:56:30;16.33;;;8.27;;
2912;SDS011;1466;48.778;9.166;2022-09-30T10:58:57;15.02;;;8.50;;
2912;SDS011;1466;48.778;9.166;2022-09-30T11:01:26;18.77;;;9.38;;
2912;SDS011;1466;48.778;9.166;2022-09-30T11:04:04;18.88;;;9.75;;
2912;SDS011;1466;48.778;9.166;2022-09-30T11:06:59;14.55;;;7.07;;
2912;SDS011;1466;48.778;9.166;2022-09-30T11:12:08;17.83;;;7.40;;
2912;SDS011;1466;48.778;9.166;2022-09-30T11:14:37;15.35;;;6.43;;
2912;SDS011;1466;48.778;9.166;2022-09-30T11:20:20;20.75;;;7.30;;
2912;SDS011;1466;48.778;9.166;2022-09-30T11:23:11;9.65;;;5.68;;
2912;SDS011;1466;48.778;9.166;2022-09-30T11:42:18;22.65;;;7.40;;
2912;SDS011;1466;48.778;9.166;2022-09-30T11:44:46;16.67;;;7.00;;
2912;SDS011;1466;48.778;9.166;2022-09-30T11:53:07;10.82;;;6.28;;
2912;SDS011;1466;48.778;9.166;2022-09-30T11:58:19;17.83;;;7.03;;
2912;SDS011;1466;48.778;9.166;2022-09-30T12:00:50;12.25;;;5.50;;
2912;SDS011;1466;48.778;9.166;2022-09-30T12:03:53;15.45;;;5.55;;
2912;SDS011;1466;48.778;9.166;2022-09-30T12:06:32;16.05;;;5.75;;
2912;SDS011;1466;48.778;9.166;2022-09-30T12:09:08;13.35;;;5.68;;
2912;SDS011;1466;48.778;9.166;2022-09-30T12:11:46;19.42;;;7.05;;
2912;SDS011;1466;48.778;9.166;2022-09-30T12:14:19;17.92;;;6.28;;
2912;SDS011;1466;48.778;9.166;2022-09-30T12:16:50;13.27;;;5.60;;
2912;SDS011;1466;48.778;9.166;2022-09-30T12:19:23;18.80;;;6.78;;
2912;SDS011;1466;48.778;9.166;2022-09-30T12:22:00;11.48;;;5.40;;
2912;SDS011;1466;48.778;9.166;2022-09-30T12:24:38;14.65;;;6.15;;
2912;SDS011;1466;48.778;9.166;2022-09-30T12:27:15;18.05;;;6.47;;
2912;SDS011;1466;48.778;9.166;2022-09-30T12:41:47;22.58;;;6.07;;
2912;SDS011;1466;48.778;9.166;2022-09-30T12:50:03;18.80;;;6.53;;
2912;SDS011;1466;48.778;9.166;2022-09-30T12:52:32;13.02;;;5.70;;
2912;SDS011;1466;48.778;9.166;2022-09-30T12:55:01;13.13;;;5.63;;
2912;SDS011;1466;48.778;9.166;2022-09-30T12:57:31;23.02;;;7.05;;
2912;SDS011;1466;48.778;9.166;2022-09-30T13:00:02;15.05;;;5.60;;
2912;SDS011;1466;48.778;9.166;2022-09-30T13:02:38;12.85;;;5.18;;
2912;SDS011;1466;48.778;9.166;2022-09-30T13:23:36;11.27;;;5.00;;
2912;SDS011;1466;48.778;9.166;2022-09-30T13:26:12;12.73;;;5.35;;
2912;SDS011;1466;48.778;9.166;2022-09-30T13:31:30;30.43;;;7.50;;
2912;SDS011;1466;48.778;9.166;2022-09-30T13:34:23;25.30;;;6.65;;
2912;SDS011;1466;48.778;9.166;2022-09-30T13:37:04;18.58;;;5.97;;
2912;SDS011;1466;48.778;9.166;2022-09-30T13:47:47;21.58;;;6.18;;
2912;SDS011;1466;48.778;9.166;2022-09-30T13:52:51;13.68;;;4.95;;
2912;SDS011;1466;48.778;9.166;2022-09-30T13:55:22;15.55;;;5.35;;
2912;SDS011;1466;48.778;9.166;2022-09-30T14:03:32;17.75;;;5.65;;
2912;SDS011;1466;48.778;9.166;2022-09-30T14:06:12;21.98;;;6.85;;
2912;SDS011;1466;48.778;9.166;2022-09-30T14:11:23;14.57;;;5.50;;
2912;SDS011;1466;48.778;9.166;2022-09-30T14:22:30;18.05;;;5.90;;
2912;SDS011;1466;48.778;9.166;2022-09-30T14:24:57;25.27;;;6.97;;
2912;SDS011;1466;48.778;9.166;2022-09-30T14:30:18;13.32;;;5.13;;
2912;SDS011;1466;48.778;9.166;2022-09-30T14:32:56;20.08;;;6.43;;
2912;SDS011;1466;48.778;9.166;2022-09-30T14:35:26;22.58;;;6.55;;
2912;SDS011;1466;48.778;9.166;2022-09-30T14:40:29;20.52;;;6.35;;
2912;SDS011;1466;48.778;9.166;2022-09-30T14:42:57;23.52;;;6.55;;
2912;SDS011;1466;48.778;9.166;2022-09-30T14:45:28;11.15;;;4.65;;
2912;SDS011;1466;48.778;9.166;2022-09-30T14:47:57;20.45;;;6.40;;
2912;SDS011;1466;48.778;9.166;2022-09-30T14:55:56;15.57;;;5.75;;
2912;SDS011;1466;48.778;9.166;2022-09-30T14:58:26;29.35;;;12.18;;
2912;SDS011;1466;48.778;9.166;2022-09-30T15:00:58;19.70;;;6.57;;
2912;SDS011;1466;48.778;9.166;2022-09-30T15:03:27;17.30;;;6.45;;
2912;SDS011;1466;48.778;9.166;2022-09-30T15:05:55;11.77;;;5.25;;
2912;SDS011;1466;48.778;9.166;2022-09-30T15:08:22;17.65;;;6.22;;
2912;SDS011;1466;48.778;9.166;2022-09-30T15:10:48;20.50;;;6.32;;
2912;SDS011;1466;48.778;9.166;2022-09-30T15:13:16;16.65;;;6.25;;
2912;SDS011;1466;48.778;9.166;2022-09-30T15:15:43;16.30;;;5.70;;
2912;SDS011;1466;48.778;9.166;2022-09-30T15:18:29;18.30;;;6.40;;
2912;SDS011;1466;48.778;9.166;2022-09-30T15:21:07;28.27;;;7.68;;
2912;SDS011;1466;48.778;9.166;2022-09-30T15:23:35;18.17;;;6.15;;
2912;SDS011;1466;48.778;9.166;2022-09-30T15:26:03;19.15;;;6.65;;
2912;SDS011;1466;48.778;9.166;2022-09-30T15:28:30;15.27;;;5.72;;
2912;SDS011;1466;48.778;9.166;2022-09-30T15:30:58;15.35;;;5.70;;
2912;SDS011;1466;48.778;9.166;2022-09-30T15:33:25;10.60;;;5.32;;
2912;SDS011;1466;48.778;9.166;2022-09-30T15:36:03;14.23;;;6.18;;
2912;SDS011;1466;48.778;9.166;2022-09-30T15:38:31;18.60;;;6.25;;
2912;SDS011;1466;48.778;9.166;2022-09-30T15:41:03;15.13;;;5.55;;
2912;SDS011;1466;48.778;9.166;2022-09-30T15:49:01;20.17;;;6.60;;
2912;SDS011;1466;48.778;9.166;2022-09-30T15:54:45;25.30;;;8.18;;
2912;SDS011;1466;48.778;9.166;2022-09-30T15:56:56;8.32;;;4.75;;
2912;SDS011;1466;48.778;9.166;2022-09-30T16:02:22;10.52;;;5.35;;
2912;SDS011;1466;48.778;9.166;2022-09-30T16:04:49;18.08;;;6.70;;
2912;SDS011;1466;48.778;9.166;2022-09-30T16:07:16;32.08;;;6.68;;
2912;SDS011;1466;48.778;9.166;2022-09-30T16:09:43;11.50;;;5.82;;
2912;SDS011;1466;48.778;9.166;2022-09-30T16:14:39;21.10;;;7.10;;
2912;SDS011;1466;48.778;9.166;2022-09-30T16:17:15;16.35;;;6.57;;
2912;SDS011;1466;48.778;9.166;2022-09-30T16:19:51;18.60;;;6.68;;
2912;SDS011;1466;48.778;9.166;2022-09-30T16:27:43;26.17;;;7.82;;
2912;SDS011;1466;48.778;9.166;2022-09-30T16:30:12;13.27;;;6.03;;
2912;SDS011;1466;48.778;9.166;2022-09-30T16:32:39;13.77;;;5.85;;
2912;SDS011;1466;48.778;9.166;2022-09-30T16:35:12;18.98;;;6.53;;
2912;SDS011;1466;48.778;9.166;2022-09-30T16:37:43;14.02;;;6.38;;
2912;SDS011;1466;48.778;9.166;2022-09-30T16:40:22;30.73;;;8.70;;
2912;SDS011;1466;48.778;9.166;2022-09-30T16:42:50;11.90;;;5.78;;
2912;SDS011;1466;48.778;9.166;2022-09-30T16:45:18;14.13;;;5.65;;
2912;SDS011;1466;48.778;9.166;2022-09-30T16:47:45;23.35;;;7.40;;
2912;SDS011;1466;48.778;9.166;2022-09-30T16:53:06;19.42;;;6.40;;
2912;SDS011;1466;48.778;9.166;2022-09-30T16:55:33;24.60;;;7.10;;
2912;SDS011;1466;48.778;9.166;2022-09-30T16:57:59;19.53;;;6.60;;
2912;SDS011;1466;48.778;9.166;2022-09-30T17:00:25;14.50;;;5.80;;
2912;SDS011;1466;48.778;9.166;2022-09-30T17:02:51;23.05;;;8.02;;
2912;SDS011;1466;48.778;9.166;2022-09-30T17:05:22;15.20;;;6.87;;
2912;SDS011;1466;48.778;9.166;2022-09-30T17:07:50;17.27;;;7.40;;
2912;SDS011;1466;48.778;9.166;2022-09-30T17:10:22;25.15;;;9.27;;
2912;SDS011;1466;48.778;9.166;2022-09-30T17:12:49;16.67;;;7.13;;
2912;SDS011;1466;48.778;9.166;2022-09-30T17:15:16;16.65;;;6.68;;
2912;SDS011;1466;48.778;9.166;2022-09-30T17:17:43;24.13;;;8.45;;
2912;SDS011;1466;48.778;9.166;2022-09-30T17:20:09;25.08;;;9.57;;
2912;SDS011;1466;48.778;9.166;2022-09-30T17:22:35;14.60;;;8.30;;
2912;SDS011;1466;48.778;9.166;2022-09-30T17:25:00;20.77;;;8.23;;
2912;SDS011;1466;48.778;9.166;2022-09-30T17:27:26;20.08;;;8.25;;
2912;SDS011;1466;48.778;9.166;2022-09-30T17:29:52;29.87;;;9.20;;
2912;SDS011;1466;48.778;9.166;2022-09-30T17:32:17;21.60;;;8.27;;
2912;SDS011;1466;48.778;9.166;2022-09-30T17:34:43;18.00;;;8.63;;
2912;SDS011;1466;48.778;9.166;2022-09-30T17:37:08;19.80;;;7.93;;
2912;SDS011;1466;48.778;9.166;2022-09-30T17:39:37;28.75;;;9.60;;
2912;SDS011;1466;48.778;9.166;2022-09-30T17:42:03;26.10;;;8.23;;
2912;SDS011;1466;48.778;9.166;2022-09-30T17:44:47;31.70;;;8.80;;
2912;SDS011;1466;48.778;9.166;2022-09-30T17:47:13;30.70;;;9.07;;
2912;SDS011;1466;48.778;9.166;2022-09-30T17:49:38;23.10;;;8.43;;
2912;SDS011;1466;48.778;9.166;2022-09-30T17:52:04;40.00;;;10.17;;
2912;SDS011;1466;48.778;9.166;2022-09-30T17:54:29;28.03;;;8.63;;
2912;SDS011;1466;48.778;9.166;2022-09-30T17:56:56;19.95;;;7.65;;
2912;SDS011;1466;48.778;9.166;2022-09-30T17:59:22;23.47;;;9.03;;
2912;SDS011;1466;48.778;9.166;2022-09-30T18:01:49;33.95;;;9.70;;
2912;SDS011;1466;48.778;9.166;2022-09-30T18:04:16;35.90;;;9.77;;
2912;SDS011;1466;48.778;9.166;2022-09-30T18:06:45;42.83;;;10.75;;
2912;SDS011;1466;48.778;9.166;2022-09-30T18:09:11;41.85;;;10.65;;
2912;SDS011;1466;48.778;9.166;2022-09-30T18:11:36;20.13;;;7.03;;
2912;SDS011;1466;48.778;9.166;2022-09-30T18:14:02;54.87;;;12.43;;
2912;SDS011;1466;48.778;9.166;2022-09-30T18:16:29;20.77;;;7.67;;
2912;SDS011;1466;48.778;9.166;2022-09-30T18:18:57;20.85;;;7.97;;
2912;SDS011;1466;48.778;9.166;2022-09-30T18:21:24;21.13;;;7.57;;
2912;SDS011;1466;48.778;9.166;2022-09-30T18:23:50;23.43;;;8.63;;
2912;SDS011;1466;48.778;9.166;2022-09-30T18:26:16;28.70;;;9.20;;
2912;SDS011;1466;48.778;9.166;2022-09-30T18:28:42;18.10;;;7.40;;
2912;SDS011;1466;48.778;9.166;2022-09-30T18:31:08;31.00;;;10.02;;
2912;SDS011;1466;48.778;9.166;2022-09-30T18:33:34;25.23;;;9.20;;
2912;SDS011;1466;48.778;9.166;2022-09-30T18:36:01;25.98;;;9.07;;
2912;SDS011;1466;48.778;9.166;2022-09-30T18:38:30;17.23;;;8.93;;
2912;SDS011;1466;48.778;9.166;2022-09-30T18:40:57;24.48;;;9.50;;
2912;SDS011;1466;48.778;9.166;2022-09-30T18:43:23;22.23;;;9.60;;
2912;SDS011;1466;48.778;9.166;2022-09-30T18:45:55;21.47;;;9.47;;
2912;SDS011;1466;48.778;9.166;2022-09-30T18:48:24;20.33;;;10.13;;
2912;SDS011;1466;48.778;9.166;2022-09-30T18:50:51;29.58;;;11.00;;
2912;SDS011;1466;48.778;9.166;2022-09-30T18:53:20;25.15;;;10.30;;
2912;SDS011;1466;48.778;9.166;2022-09-30T18:55:46;33.20;;;13.45;;
2912;SDS011;1466;48.778;9.166;2022-09-30T18:58:12;37.80;;;13.20;;
2912;SDS011;1466;48.778;9.166;2022-09-30T19:00:42;33.63;;;13.02;;
2912;SDS011;1466;48.778;9.166;2022-09-30T19:03:07;26.85;;;10.77;;
2912;SDS011;1466;48.778;9.166;2022-09-30T19:05:40;30.70;;;12.10;;
2912;SDS011;1466;48.778;9.166;2022-09-30T19:08:06;30.40;;;10.95;;